sensor_id;sensor_type;location;lat;lon;timestamp;P1;durP1;ratioP1;P2;durP2;ratioP2
16401;SDS011;8310;44.626;11.176;2023-03-14T00:01:15;15.93;;;14.25;;
16401;SDS011;8310;44.626;11.176;2023-03-14T00:03:45;16.65;;;14.93;;
16401;SDS011;8310;44.626;11.176;2023-03-14T00:06:13;17.55;;;14.32;;
16401;SDS011;8310;44.626;11.176;2023-03-14T00:08:41;17.90;;;13.90;;
16401;SDS011;8310;44.626;11.176;2023-03-14T00:11:11;15.85;;;14.10;;
16401;SDS011;8310;44.626;11.176;2023-03-14T00:13:39;15.52;;;13.98;;
16401;SDS011;8310;44.626;11.176;2023-03-14T00:16:10;14.40;;;12.40;;
16401;SDS011;8310;44.626;11.176;2023-03-14T00:18:38;16.65;;;13.95;;
16401;SDS011;8310;44.626;11.176;2023-03-14T00:21:07;14.23;;;12.80;;
16401;SDS011;8310;44.626;11.176;2023-03-14T00:23:36;15.50;;;13.23;;
16401;SDS011;8310;44.626;11.176;2023-03-14T00:26:06;16.02;;;13.63;;
16401;SDS011;8310;44.626;11.176;2023-03-14T00:28:35;14.85;;;12.93;;
16401;SDS011;8310;44.626;11.176;2023-03-14T00:31:03;13.52;;;12.15;;
16401;SDS011;8310;44.626;11.176;2023-03-14T00:33:32;15.50;;;12.93;;
16401;SDS011;8310;44.626;11.176;2023-03-14T00:36:01;14.25;;;12.63;;
16401;SDS011;8310;44.626;11.176;2023-03-14T00:38:31;14.05;;;12.70;;
16401;SDS011;8310;44.626;11.176;2023-03-14T00:41:01;15.98;;;13.40;;
16401;SDS011;8310;44.626;11.176;2023-03-14T00:43:30;17.02;;;14.10;;
16401;SDS011;8310;44.626;11.176;2023-03-14T00:45:57;16.00;;;13.23;;
16401;SDS011;8310;44.626;11.176;2023-03-14T00:48:25;15.02;;;13.32;;
16401;SDS011;8310;44.626;11.176;2023-03-14T00:50:54;16.35;;;13.43;;
16401;SDS011;8310;44.626;11.176;2023-03-14T00:53:22;15.13;;;13.55;;
16401;SDS011;8310;44.626;11.176;2023-03-14T00:55:49;15.27;;;13.43;;
16401;SDS011;8310;44.626;11.176;2023-03-14T00:58:17;14.95;;;13.57;;
16401;SDS011;8310;44.626;11.176;2023-03-14T01:00:45;15.45;;;13.88;;
16401;SDS011;8310;44.626;11.176;2023-03-14T01:03:13;18.35;;;13.95;;
16401;SDS011;8310;44.626;11.176;2023-03-14T01:05:42;16.80;;;14.32;;
16401;SDS011;8310;44.626;11.176;2023-03-14T01:08:11;16.92;;;15.02;;
16401;SDS011;8310;44.626;11.176;2023-03-14T01:10:39;15.98;;;14.38;;
16401;SDS011;8310;44.626;11.176;2023-03-14T01:13:07;16.73;;;15.00;;
16401;SDS011;8310;44.626;11.176;2023-03-14T01:15:37;16.17;;;14.48;;
16401;SDS011;8310;44.626;11.176;2023-03-14T01:18:04;16.10;;;14.40;;
16401;SDS011;8310;44.626;11.176;2023-03-14T01:20:33;17.00;;;15.13;;
16401;SDS011;8310;44.626;11.176;2023-03-14T01:23:00;15.13;;;13.57;;
16401;SDS011;8310;44.626;11.176;2023-03-14T01:25:28;17.20;;;14.75;;
16401;SDS011;8310;44.626;11.176;2023-03-14T01:27:56;17.33;;;14.20;;
16401;SDS011;8310;44.626;11.176;2023-03-14T01:30:23;15.82;;;12.90;;
16401;SDS011;8310;44.626;11.176;2023-03-14T01:32:51;15.18;;;12.25;;
16401;SDS011;8310;44.626;11.176;2023-03-14T01:35:18;14.38;;;12.55;;
16401;SDS011;8310;44.626;11.176;2023-03-14T01:37:47;14.30;;;12.40;;
16401;SDS011;8310;44.626;11.176;2023-03-14T01:40:14;13.63;;;12.10;;
16401;SDS011;8310;44.626;11.176;2023-03-14T01:42:47;13.63;;;12.07;;
16401;SDS011;8310;44.626;11.176;2023-03-14T01:48:27;14.57;;;11.10;;
16401;SDS011;8310;44.626;11.176;2023-03-14T01:50:58;13.73;;;10.60;;
16401;SDS011;8310;44.626;11.176;2023-03-14T01:53:27;14.40;;;10.80;;
16401;SDS011;8310;44.626;11.176;2023-03-14T01:55:55;12.82;;;10.75;;
16401;SDS011;8310;44.626;11.176;2023-03-14T01:58:25;13.60;;;9.15;;
16401;SDS011;8310;44.626;11.176;2023-03-14T02:00:54;8.40;;;6.22;;
16401;SDS011;8310;44.626;11.176;2023-03-14T02:03:23;7.22;;;4.85;;
16401;SDS011;8310;44.626;11.176;2023-03-14T02:05:54;4.72;;;3.97;;
16401;SDS011;8310;44.626;11.176;2023-03-14T02:08:26;3.40;;;2.00;;
16401;SDS011;8310;44.626;11.176;2023-03-14T02:10:54;5.28;;;2.67;;
16401;SDS011;8310;44.626;11.176;2023-03-14T02:13:22;3.53;;;1.98;;
16401;SDS011;8310;44.626;11.176;2023-03-14T02:15:51;3.17;;;1.67;;
16401;SDS011;8310;44.626;11.176;2023-03-14T02:18:18;2.13;;;1.70;;
16401;SDS011;8310;44.626;11.176;2023-03-14T02:20:49;6.15;;;1.98;;
16401;SDS011;8310;44.626;11.176;2023-03-14T02:23:20;4.57;;;1.90;;
16401;SDS011;8310;44.626;11.176;2023-03-14T02:26:02;2.90;;;1.75;;
16401;SDS011;8310;44.626;11.176;2023-03-14T02:28:37;5.28;;;1.60;;
16401;SDS011;8310;44.626;11.176;2023-03-14T02:31:05;5.32;;;1.85;;
16401;SDS011;8310;44.626;11.176;2023-03-14T02:33:34;5.68;;;1.88;;
16401;SDS011;8310;44.626;11.176;2023-03-14T02:36:07;4.20;;;2.00;;
16401;SDS011;8310;44.626;11.176;2023-03-14T02:38:39;2.78;;;1.65;;
16401;SDS011;8310;44.626;11.176;2023-03-14T02:41:13;4.88;;;1.67;;
16401;SDS011;8310;44.626;11.176;2023-03-14T02:43:44;3.80;;;1.75;;
16401;SDS011;8310;44.626;11.176;2023-03-14T02:46:13;3.28;;;2.08;;
16401;SDS011;8310;44.626;11.176;2023-03-14T02:48:44;2.78;;;2.10;;
16401;SDS011;8310;44.626;11.176;2023-03-14T02:51:15;4.63;;;1.90;;
16401;SDS011;8310;44.626;11.176;2023-03-14T02:53:43;5.97;;;2.75;;
16401;SDS011;8310;44.626;11.176;2023-03-14T02:56:10;6.50;;;3.78;;
16401;SDS011;8310;44.626;11.176;2023-03-14T02:58:38;6.90;;;4.78;;
16401;SDS011;8310;44.626;11.176;2023-03-14T03:01:08;5.57;;;3.90;;
16401;SDS011;8310;44.626;11.176;2023-03-14T03:03:35;5.30;;;3.60;;
16401;SDS011;8310;44.626;11.176;2023-03-14T03:06:03;3.85;;;2.90;;
16401;SDS011;8310;44.626;11.176;2023-03-14T03:08:31;4.20;;;2.40;;
16401;SDS011;8310;44.626;11.176;2023-03-14T03:10:59;5.32;;;2.65;;
16401;SDS011;8310;44.626;11.176;2023-03-14T03:13:26;4.30;;;2.80;;
16401;SDS011;8310;44.626;11.176;2023-03-14T03:15:54;4.60;;;2.20;;
16401;SDS011;8310;44.626;11.176;2023-03-14T03:18:24;3.42;;;1.70;;
16401;SDS011;8310;44.626;11.176;2023-03-14T03:20:51;4.60;;;1.85;;
16401;SDS011;8310;44.626;11.176;2023-03-14T03:23:20;3.60;;;1.77;;
16401;SDS011;8310;44.626;11.176;2023-03-14T03:25:48;4.82;;;2.08;;
16401;SDS011;8310;44.626;11.176;2023-03-14T03:28:16;3.95;;;1.70;;
16401;SDS011;8310;44.626;11.176;2023-03-14T03:30:44;5.60;;;1.80;;
16401;SDS011;8310;44.626;11.176;2023-03-14T03:33:12;3.80;;;1.58;;
16401;SDS011;8310;44.626;11.176;2023-03-14T03:35:45;5.07;;;1.60;;
16401;SDS011;8310;44.626;11.176;2023-03-14T03:38:14;4.40;;;1.90;;
16401;SDS011;8310;44.626;11.176;2023-03-14T03:40:43;2.83;;;1.50;;
16401;SDS011;8310;44.626;11.176;2023-03-14T03:43:11;3.10;;;1.80;;
16401;SDS011;8310;44.626;11.176;2023-03-14T03:45:39;3.45;;;1.50;;
16401;SDS011;8310;44.626;11.176;2023-03-14T03:48:06;6.47;;;3.17;;
16401;SDS011;8310;44.626;11.176;2023-03-14T03:50:34;5.43;;;2.50;;
16401;SDS011;8310;44.626;11.176;2023-03-14T03:53:03;2.90;;;2.60;;
16401;SDS011;8310;44.626;11.176;2023-03-14T03:55:32;5.60;;;3.65;;
16401;SDS011;8310;44.626;11.176;2023-03-14T03:57:59;6.10;;;3.95;;
16401;SDS011;8310;44.626;11.176;2023-03-14T04:00:27;8.40;;;4.28;;
16401;SDS011;8310;44.626;11.176;2023-03-14T04:02:56;12.25;;;11.25;;
16401;SDS011;8310;44.626;11.176;2023-03-14T04:05:24;14.23;;;12.93;;
16401;SDS011;8310;44.626;11.176;2023-03-14T04:07:52;14.38;;;12.82;;
16401;SDS011;8310;44.626;11.176;2023-03-14T04:13:08;14.75;;;13.27;;
16401;SDS011;8310;44.626;11.176;2023-03-14T04:15:35;15.45;;;13.77;;
16401;SDS011;8310;44.626;11.176;2023-03-14T04:18:03;16.65;;;14.50;;
16401;SDS011;8310;44.626;11.176;2023-03-14T04:20:31;17.88;;;15.38;;
16401;SDS011;8310;44.626;11.176;2023-03-14T04:23:01;16.15;;;14.55;;
16401;SDS011;8310;44.626;11.176;2023-03-14T04:25:29;16.65;;;15.02;;
16401;SDS011;8310;44.626;11.176;2023-03-14T04:27:58;18.17;;;16.15;;
16401;SDS011;8310;44.626;11.176;2023-03-14T04:30:25;17.10;;;15.32;;
16401;SDS011;8310;44.626;11.176;2023-03-14T04:32:54;17.90;;;15.95;;
16401;SDS011;8310;44.626;11.176;2023-03-14T04:35:21;18.08;;;16.38;;
16401;SDS011;8310;44.626;11.176;2023-03-14T04:37:50;16.38;;;14.68;;
16401;SDS011;8310;44.626;11.176;2023-03-14T04:40:18;16.15;;;13.82;;
16401;SDS011;8310;44.626;11.176;2023-03-14T04:42:45;10.50;;;8.57;;
16401;SDS011;8310;44.626;11.176;2023-03-14T04:45:14;2.40;;;1.70;;
16401;SDS011;8310;44.626;11.176;2023-03-14T04:47:43;2.85;;;1.30;;
16401;SDS011;8310;44.626;11.176;2023-03-14T04:50:10;5.18;;;1.40;;
16401;SDS011;8310;44.626;11.176;2023-03-14T04:52:38;5.75;;;1.27;;
16401;SDS011;8310;44.626;11.176;2023-03-14T04:55:06;2.33;;;1.08;;
16401;SDS011;8310;44.626;11.176;2023-03-14T04:57:34;3.67;;;1.30;;
16401;SDS011;8310;44.626;11.176;2023-03-14T05:00:03;3.30;;;1.30;;
16401;SDS011;8310;44.626;11.176;2023-03-14T05:02:34;2.20;;;1.60;;
16401;SDS011;8310;44.626;11.176;2023-03-14T05:05:02;3.63;;;1.92;;
16401;SDS011;8310;44.626;11.176;2023-03-14T05:07:30;5.50;;;1.80;;
16401;SDS011;8310;44.626;11.176;2023-03-14T05:09:58;3.40;;;1.30;;
16401;SDS011;8310;44.626;11.176;2023-03-14T05:12:25;3.45;;;1.40;;
16401;SDS011;8310;44.626;11.176;2023-03-14T05:14:53;2.08;;;1.40;;
16401;SDS011;8310;44.626;11.176;2023-03-14T05:17:20;2.08;;;1.20;;
16401;SDS011;8310;44.626;11.176;2023-03-14T05:19:49;2.00;;;1.38;;
16401;SDS011;8310;44.626;11.176;2023-03-14T05:22:17;4.55;;;1.65;;
16401;SDS011;8310;44.626;11.176;2023-03-14T05:24:45;6.80;;;1.20;;
16401;SDS011;8310;44.626;11.176;2023-03-14T05:27:13;3.03;;;1.60;;
16401;SDS011;8310;44.626;11.176;2023-03-14T05:29:40;4.53;;;1.58;;
16401;SDS011;8310;44.626;11.176;2023-03-14T05:32:08;3.05;;;2.13;;
16401;SDS011;8310;44.626;11.176;2023-03-14T05:34:36;3.55;;;1.05;;
16401;SDS011;8310;44.626;11.176;2023-03-14T05:37:05;2.72;;;1.05;;
16401;SDS011;8310;44.626;11.176;2023-03-14T05:39:33;2.92;;;1.58;;
16401;SDS011;8310;44.626;11.176;2023-03-14T05:42:00;2.80;;;1.40;;
16401;SDS011;8310;44.626;11.176;2023-03-14T05:44:28;3.35;;;1.58;;
16401;SDS011;8310;44.626;11.176;2023-03-14T05:46:56;5.57;;;1.92;;
16401;SDS011;8310;44.626;11.176;2023-03-14T05:49:23;2.95;;;1.52;;
16401;SDS011;8310;44.626;11.176;2023-03-14T05:51:52;3.60;;;1.40;;
16401;SDS011;8310;44.626;11.176;2023-03-14T05:54:21;5.15;;;1.65;;
16401;SDS011;8310;44.626;11.176;2023-03-14T05:57:10;5.32;;;1.77;;
16401;SDS011;8310;44.626;11.176;2023-03-14T05:59:38;5.25;;;1.50;;
16401;SDS011;8310;44.626;11.176;2023-03-14T06:02:06;7.57;;;1.77;;
16401;SDS011;8310;44.626;11.176;2023-03-14T06:04:34;3.65;;;1.30;;
16401;SDS011;8310;44.626;11.176;2023-03-14T06:07:03;4.80;;;1.58;;
16401;SDS011;8310;44.626;11.176;2023-03-14T06:09:32;3.53;;;1.58;;
16401;SDS011;8310;44.626;11.176;2023-03-14T06:12:00;2.15;;;1.63;;
16401;SDS011;8310;44.626;11.176;2023-03-14T06:14:27;5.68;;;1.73;;
16401;SDS011;8310;44.626;11.176;2023-03-14T06:16:55;3.80;;;1.23;;
16401;SDS011;8310;44.626;11.176;2023-03-14T06:19:24;3.63;;;1.55;;
16401;SDS011;8310;44.626;11.176;2023-03-14T06:21:51;4.20;;;1.88;;
16401;SDS011;8310;44.626;11.176;2023-03-14T06:24:19;5.05;;;2.45;;
16401;SDS011;8310;44.626;11.176;2023-03-14T06:26:48;4.20;;;1.65;;
16401;SDS011;8310;44.626;11.176;2023-03-14T06:29:15;7.15;;;2.15;;
16401;SDS011;8310;44.626;11.176;2023-03-14T06:31:47;3.75;;;2.20;;
16401;SDS011;8310;44.626;11.176;2023-03-14T06:34:17;9.65;;;3.20;;
16401;SDS011;8310;44.626;11.176;2023-03-14T06:39:20;5.15;;;2.88;;
16401;SDS011;8310;44.626;11.176;2023-03-14T06:41:50;5.18;;;2.75;;
16401;SDS011;8310;44.626;11.176;2023-03-14T06:44:18;7.13;;;3.40;;
16401;SDS011;8310;44.626;11.176;2023-03-14T06:46:45;6.18;;;3.00;;
16401;SDS011;8310;44.626;11.176;2023-03-14T06:49:14;6.07;;;3.45;;
16401;SDS011;8310;44.626;11.176;2023-03-14T06:51:41;4.90;;;3.30;;
16401;SDS011;8310;44.626;11.176;2023-03-14T06:54:09;14.13;;;4.50;;
16401;SDS011;8310;44.626;11.176;2023-03-14T06:56:37;4.13;;;2.88;;
16401;SDS011;8310;44.626;11.176;2023-03-14T06:59:08;9.52;;;3.60;;
16401;SDS011;8310;44.626;11.176;2023-03-14T07:01:36;4.93;;;3.10;;
16401;SDS011;8310;44.626;11.176;2023-03-14T07:04:04;5.93;;;2.50;;
16401;SDS011;8310;44.626;11.176;2023-03-14T07:06:32;5.10;;;2.60;;
16401;SDS011;8310;44.626;11.176;2023-03-14T07:09:00;9.80;;;2.78;;
16401;SDS011;8310;44.626;11.176;2023-03-14T07:11:29;9.15;;;3.28;;
16401;SDS011;8310;44.626;11.176;2023-03-14T07:13:56;5.22;;;2.78;;
16401;SDS011;8310;44.626;11.176;2023-03-14T07:16:26;5.05;;;3.42;;
16401;SDS011;8310;44.626;11.176;2023-03-14T07:18:56;4.82;;;3.10;;
16401;SDS011;8310;44.626;11.176;2023-03-14T07:21:25;6.18;;;3.08;;
16401;SDS011;8310;44.626;11.176;2023-03-14T07:23:53;8.80;;;7.90;;
16401;SDS011;8310;44.626;11.176;2023-03-14T07:26:21;10.18;;;8.18;;
16401;SDS011;8310;44.626;11.176;2023-03-14T07:28:48;13.73;;;11.98;;
16401;SDS011;8310;44.626;11.176;2023-03-14T07:31:16;16.92;;;14.82;;
16401;SDS011;8310;44.626;11.176;2023-03-14T07:33:46;15.27;;;11.70;;
16401;SDS011;8310;44.626;11.176;2023-03-14T07:36:15;15.48;;;12.30;;
16401;SDS011;8310;44.626;11.176;2023-03-14T07:38:42;17.20;;;11.75;;
16401;SDS011;8310;44.626;11.176;2023-03-14T07:41:10;15.00;;;11.48;;
16401;SDS011;8310;44.626;11.176;2023-03-14T07:43:39;21.35;;;13.63;;
16401;SDS011;8310;44.626;11.176;2023-03-14T07:46:07;22.02;;;16.40;;
16401;SDS011;8310;44.626;11.176;2023-03-14T07:48:35;20.45;;;15.98;;
16401;SDS011;8310;44.626;11.176;2023-03-14T07:51:04;20.90;;;15.63;;
16401;SDS011;8310;44.626;11.176;2023-03-14T07:53:32;20.55;;;16.02;;
16401;SDS011;8310;44.626;11.176;2023-03-14T07:56:00;19.58;;;15.05;;
16401;SDS011;8310;44.626;11.176;2023-03-14T07:58:28;21.33;;;15.05;;
16401;SDS011;8310;44.626;11.176;2023-03-14T08:00:57;23.17;;;15.98;;
16401;SDS011;8310;44.626;11.176;2023-03-14T08:03:26;23.10;;;15.82;;
16401;SDS011;8310;44.626;11.176;2023-03-14T08:05:54;21.13;;;15.45;;
16401;SDS011;8310;44.626;11.176;2023-03-14T08:08:25;19.48;;;15.32;;
16401;SDS011;8310;44.626;11.176;2023-03-14T08:10:53;20.92;;;14.68;;
16401;SDS011;8310;44.626;11.176;2023-03-14T08:13:21;20.88;;;15.43;;
16401;SDS011;8310;44.626;11.176;2023-03-14T08:15:50;19.45;;;14.90;;
16401;SDS011;8310;44.626;11.176;2023-03-14T08:18:18;18.90;;;15.18;;
16401;SDS011;8310;44.626;11.176;2023-03-14T08:20:46;21.60;;;16.40;;
16401;SDS011;8310;44.626;11.176;2023-03-14T08:23:14;18.25;;;15.60;;
16401;SDS011;8310;44.626;11.176;2023-03-14T08:25:44;17.80;;;15.18;;
16401;SDS011;8310;44.626;11.176;2023-03-14T08:28:11;20.55;;;15.75;;
16401;SDS011;8310;44.626;11.176;2023-03-14T08:30:39;18.63;;;14.95;;
16401;SDS011;8310;44.626;11.176;2023-03-14T08:33:07;18.95;;;14.50;;
16401;SDS011;8310;44.626;11.176;2023-03-14T08:35:35;16.58;;;13.73;;
16401;SDS011;8310;44.626;11.176;2023-03-14T08:38:05;18.88;;;14.07;;
16401;SDS011;8310;44.626;11.176;2023-03-14T08:40:33;20.67;;;14.48;;
16401;SDS011;8310;44.626;11.176;2023-03-14T08:43:02;15.68;;;13.13;;
16401;SDS011;8310;44.626;11.176;2023-03-14T08:45:30;15.70;;;13.40;;
16401;SDS011;8310;44.626;11.176;2023-03-14T08:47:58;17.17;;;13.05;;
16401;SDS011;8310;44.626;11.176;2023-03-14T08:50:26;15.30;;;12.23;;
16401;SDS011;8310;44.626;11.176;2023-03-14T08:52:54;14.35;;;12.35;;
16401;SDS011;8310;44.626;11.176;2023-03-14T08:55:23;13.60;;;12.20;;
16401;SDS011;8310;44.626;11.176;2023-03-14T08:57:52;17.70;;;13.73;;
16401;SDS011;8310;44.626;11.176;2023-03-14T09:00:21;24.27;;;14.05;;
16401;SDS011;8310;44.626;11.176;2023-03-14T09:02:50;14.90;;;11.32;;
16401;SDS011;8310;44.626;11.176;2023-03-14T09:05:18;26.67;;;13.50;;
16401;SDS011;8310;44.626;11.176;2023-03-14T09:07:46;20.00;;;11.88;;
16401;SDS011;8310;44.626;11.176;2023-03-14T09:10:13;14.40;;;9.32;;
16401;SDS011;8310;44.626;11.176;2023-03-14T09:12:41;13.05;;;9.95;;
16401;SDS011;8310;44.626;11.176;2023-03-14T09:15:09;14.95;;;9.80;;
16401;SDS011;8310;44.626;11.176;2023-03-14T09:17:39;13.13;;;9.98;;
16401;SDS011;8310;44.626;11.176;2023-03-14T09:20:10;13.52;;;10.02;;
16401;SDS011;8310;44.626;11.176;2023-03-14T09:22:39;13.10;;;9.10;;
16401;SDS011;8310;44.626;11.176;2023-03-14T09:25:07;13.27;;;10.07;;
16401;SDS011;8310;44.626;11.176;2023-03-14T09:27:36;11.27;;;9.95;;
16401;SDS011;8310;44.626;11.176;2023-03-14T09:30:06;14.15;;;9.70;;
16401;SDS011;8310;44.626;11.176;2023-03-14T09:32:35;12.73;;;9.15;;
16401;SDS011;8310;44.626;11.176;2023-03-14T09:35:05;12.77;;;8.65;;
16401;SDS011;8310;44.626;11.176;2023-03-14T09:37:33;11.77;;;8.52;;
16401;SDS011;8310;44.626;11.176;2023-03-14T09:40:00;10.75;;;7.38;;
16401;SDS011;8310;44.626;11.176;2023-03-14T09:42:34;9.50;;;7.47;;
16401;SDS011;8310;44.626;11.176;2023-03-14T09:45:06;7.97;;;6.32;;
16401;SDS011;8310;44.626;11.176;2023-03-14T09:47:39;6.55;;;4.82;;
16401;SDS011;8310;44.626;11.176;2023-03-14T09:50:12;3.55;;;1.90;;
16401;SDS011;8310;44.626;11.176;2023-03-14T09:52:42;1.60;;;1.50;;
16401;SDS011;8310;44.626;11.176;2023-03-14T09:55:14;3.72;;;1.80;;
16401;SDS011;8310;44.626;11.176;2023-03-14T09:57:45;2.80;;;1.88;;
16401;SDS011;8310;44.626;11.176;2023-03-14T10:00:14;6.18;;;2.00;;
16401;SDS011;8310;44.626;11.176;2023-03-14T10:02:46;2.13;;;1.30;;
16401;SDS011;8310;44.626;11.176;2023-03-14T10:05:20;3.72;;;1.50;;
16401;SDS011;8310;44.626;11.176;2023-03-14T10:07:49;3.05;;;1.70;;
16401;SDS011;8310;44.626;11.176;2023-03-14T10:10:18;3.13;;;2.50;;
16401;SDS011;8310;44.626;11.176;2023-03-14T10:12:47;1.20;;;1.15;;
16401;SDS011;8310;44.626;11.176;2023-03-14T10:15:23;1.65;;;1.17;;
16401;SDS011;8310;44.626;11.176;2023-03-14T10:17:52;1.85;;;1.38;;
16401;SDS011;8310;44.626;11.176;2023-03-14T10:20:33;2.35;;;1.42;;
16401;SDS011;8310;44.626;11.176;2023-03-14T10:23:26;2.90;;;1.42;;
16401;SDS011;8310;44.626;11.176;2023-03-14T10:26:00;1.77;;;1.15;;
16401;SDS011;8310;44.626;11.176;2023-03-14T10:28:33;3.03;;;1.30;;
16401;SDS011;8310;44.626;11.176;2023-03-14T10:31:04;2.70;;;1.30;;
16401;SDS011;8310;44.626;11.176;2023-03-14T10:33:33;1.20;;;1.10;;
16401;SDS011;8310;44.626;11.176;2023-03-14T10:36:03;5.10;;;1.40;;
16401;SDS011;8310;44.626;11.176;2023-03-14T10:38:42;1.00;;;1.00;;
16401;SDS011;8310;44.626;11.176;2023-03-14T10:41:15;4.30;;;1.65;;
16401;SDS011;8310;44.626;11.176;2023-03-14T10:43:45;1.70;;;1.27;;
16401;SDS011;8310;44.626;11.176;2023-03-14T10:46:23;1.40;;;1.00;;
16401;SDS011;8310;44.626;11.176;2023-03-14T10:48:53;1.40;;;1.20;;
16401;SDS011;8310;44.626;11.176;2023-03-14T10:51:24;1.98;;;1.20;;
16401;SDS011;8310;44.626;11.176;2023-03-14T10:53:56;1.77;;;1.00;;
16401;SDS011;8310;44.626;11.176;2023-03-14T10:56:25;3.00;;;2.00;;
16401;SDS011;8310;44.626;11.176;2023-03-14T10:58:56;3.10;;;1.90;;
16401;SDS011;8310;44.626;11.176;2023-03-14T11:01:27;2.38;;;2.17;;
16401;SDS011;8310;44.626;11.176;2023-03-14T11:04:08;16.60;;;3.67;;
16401;SDS011;8310;44.626;11.176;2023-03-14T11:06:44;11.40;;;4.38;;
16401;SDS011;8310;44.626;11.176;2023-03-14T11:09:18;9.20;;;3.53;;
16401;SDS011;8310;44.626;11.176;2023-03-14T11:11:52;5.38;;;3.10;;
16401;SDS011;8310;44.626;11.176;2023-03-14T11:14:23;4.60;;;3.10;;
16401;SDS011;8310;44.626;11.176;2023-03-14T11:16:58;4.15;;;2.97;;
16401;SDS011;8310;44.626;11.176;2023-03-14T11:19:33;5.05;;;3.03;;
16401;SDS011;8310;44.626;11.176;2023-03-14T11:22:24;6.63;;;3.80;;
16401;SDS011;8310;44.626;11.176;2023-03-14T11:25:06;5.40;;;3.00;;
16401;SDS011;8310;44.626;11.176;2023-03-14T11:27:45;4.45;;;2.90;;
16401;SDS011;8310;44.626;11.176;2023-03-14T11:30:22;4.20;;;3.75;;
16401;SDS011;8310;44.626;11.176;2023-03-14T11:32:56;14.20;;;8.65;;
16401;SDS011;8310;44.626;11.176;2023-03-14T11:35:30;14.48;;;10.57;;
16401;SDS011;8310;44.626;11.176;2023-03-14T11:38:05;11.88;;;9.35;;
16401;SDS011;8310;44.626;11.176;2023-03-14T11:40:40;28.10;;;11.45;;
16401;SDS011;8310;44.626;11.176;2023-03-14T11:43:10;13.07;;;11.02;;
16401;SDS011;8310;44.626;11.176;2023-03-14T11:45:42;16.08;;;10.73;;
16401;SDS011;8310;44.626;11.176;2023-03-14T11:48:16;12.07;;;10.25;;
16401;SDS011;8310;44.626;11.176;2023-03-14T11:50:51;10.32;;;8.45;;
16401;SDS011;8310;44.626;11.176;2023-03-14T11:53:25;12.23;;;9.57;;
16401;SDS011;8310;44.626;11.176;2023-03-14T11:56:09;7.57;;;6.82;;
16401;SDS011;8310;44.626;11.176;2023-03-14T11:58:42;9.57;;;8.60;;
16401;SDS011;8310;44.626;11.176;2023-03-14T12:01:16;12.15;;;8.35;;
16401;SDS011;8310;44.626;11.176;2023-03-14T12:03:49;7.47;;;6.53;;
16401;SDS011;8310;44.626;11.176;2023-03-14T12:06:22;9.57;;;8.60;;
16401;SDS011;8310;44.626;11.176;2023-03-14T12:08:57;9.02;;;7.50;;
16401;SDS011;8310;44.626;11.176;2023-03-14T12:11:33;8.75;;;7.88;;
16401;SDS011;8310;44.626;11.176;2023-03-14T12:14:16;8.07;;;7.10;;
16401;SDS011;8310;44.626;11.176;2023-03-14T12:16:52;5.63;;;5.13;;
16401;SDS011;8310;44.626;11.176;2023-03-14T12:19:26;6.15;;;5.30;;
16401;SDS011;8310;44.626;11.176;2023-03-14T12:22:06;6.07;;;5.50;;
16401;SDS011;8310;44.626;11.176;2023-03-14T12:24:45;5.90;;;5.07;;
16401;SDS011;8310;44.626;11.176;2023-03-14T12:30:17;8.57;;;7.65;;
16401;SDS011;8310;44.626;11.176;2023-03-14T12:36:03;8.90;;;8.00;;
16401;SDS011;8310;44.626;11.176;2023-03-14T12:39:19;8.50;;;7.35;;
16401;SDS011;8310;44.626;11.176;2023-03-14T12:42:00;8.90;;;7.93;;
16401;SDS011;8310;44.626;11.176;2023-03-14T12:44:42;8.85;;;7.95;;
16401;SDS011;8310;44.626;11.176;2023-03-14T12:50:18;8.57;;;7.10;;
16401;SDS011;8310;44.626;11.176;2023-03-14T12:52:52;8.85;;;7.85;;
16401;SDS011;8310;44.626;11.176;2023-03-14T12:55:41;7.03;;;6.32;;
16401;SDS011;8310;44.626;11.176;2023-03-14T12:58:28;10.05;;;7.22;;
16401;SDS011;8310;44.626;11.176;2023-03-14T13:00:59;7.68;;;6.95;;
16401;SDS011;8310;44.626;11.176;2023-03-14T13:03:36;6.85;;;6.13;;
16401;SDS011;8310;44.626;11.176;2023-03-14T13:06:09;7.65;;;6.00;;
16401;SDS011;8310;44.626;11.176;2023-03-14T13:08:39;13.13;;;6.82;;
16401;SDS011;8310;44.626;11.176;2023-03-14T13:11:08;7.38;;;6.65;;
16401;SDS011;8310;44.626;11.176;2023-03-14T13:13:44;6.88;;;5.40;;
16401;SDS011;8310;44.626;11.176;2023-03-14T13:16:16;6.93;;;6.10;;
16401;SDS011;8310;44.626;11.176;2023-03-14T13:18:45;6.68;;;5.22;;
16401;SDS011;8310;44.626;11.176;2023-03-14T13:21:15;8.77;;;6.95;;
16401;SDS011;8310;44.626;11.176;2023-03-14T13:23:57;7.25;;;6.47;;
16401;SDS011;8310;44.626;11.176;2023-03-14T13:26:32;7.63;;;6.03;;
16401;SDS011;8310;44.626;11.176;2023-03-14T13:29:09;9.00;;;7.38;;
16401;SDS011;8310;44.626;11.176;2023-03-14T13:31:44;7.32;;;6.63;;
16401;SDS011;8310;44.626;11.176;2023-03-14T13:34:12;7.18;;;6.57;;
16401;SDS011;8310;44.626;11.176;2023-03-14T13:36:40;11.50;;;7.00;;
16401;SDS011;8310;44.626;11.176;2023-03-14T13:39:09;6.90;;;5.90;;
16401;SDS011;8310;44.626;11.176;2023-03-14T13:41:39;7.88;;;6.32;;
16401;SDS011;8310;44.626;11.176;2023-03-14T13:44:07;6.32;;;5.72;;
16401;SDS011;8310;44.626;11.176;2023-03-14T13:46:40;7.55;;;6.78;;
16401;SDS011;8310;44.626;11.176;2023-03-14T13:49:09;7.00;;;6.40;;
16401;SDS011;8310;44.626;11.176;2023-03-14T13:51:42;6.63;;;6.10;;
16401;SDS011;8310;44.626;11.176;2023-03-14T13:54:14;8.93;;;7.53;;
16401;SDS011;8310;44.626;11.176;2023-03-14T13:56:43;7.93;;;7.07;;
16401;SDS011;8310;44.626;11.176;2023-03-14T13:59:23;8.38;;;7.22;;
16401;SDS011;8310;44.626;11.176;2023-03-14T14:01:51;7.53;;;6.55;;
16401;SDS011;8310;44.626;11.176;2023-03-14T14:04:21;7.07;;;6.45;;
16401;SDS011;8310;44.626;11.176;2023-03-14T14:06:52;7.88;;;7.15;;
16401;SDS011;8310;44.626;11.176;2023-03-14T14:09:23;7.63;;;6.90;;
16401;SDS011;8310;44.626;11.176;2023-03-14T14:11:53;8.07;;;6.80;;
16401;SDS011;8310;44.626;11.176;2023-03-14T14:14:25;7.15;;;6.55;;
16401;SDS011;8310;44.626;11.176;2023-03-14T14:16:57;7.38;;;6.43;;
16401;SDS011;8310;44.626;11.176;2023-03-14T14:19:26;8.65;;;6.38;;
16401;SDS011;8310;44.626;11.176;2023-03-14T14:21:56;7.85;;;6.93;;
16401;SDS011;8310;44.626;11.176;2023-03-14T14:24:28;7.60;;;6.53;;
16401;SDS011;8310;44.626;11.176;2023-03-14T14:26:59;7.13;;;6.53;;
16401;SDS011;8310;44.626;11.176;2023-03-14T14:29:30;8.45;;;6.25;;
16401;SDS011;8310;44.626;11.176;2023-03-14T14:32:00;7.10;;;6.50;;
16401;SDS011;8310;44.626;11.176;2023-03-14T14:34:29;6.13;;;5.35;;
16401;SDS011;8310;44.626;11.176;2023-03-14T14:37:14;7.72;;;7.03;;
16401;SDS011;8310;44.626;11.176;2023-03-14T14:39:45;7.30;;;6.63;;
16401;SDS011;8310;44.626;11.176;2023-03-14T14:42:14;7.03;;;6.35;;
16401;SDS011;8310;44.626;11.176;2023-03-14T14:44:44;6.93;;;6.20;;
16401;SDS011;8310;44.626;11.176;2023-03-14T14:47:12;8.48;;;6.07;;
16401;SDS011;8310;44.626;11.176;2023-03-14T14:49:41;5.90;;;5.20;;
16401;SDS011;8310;44.626;11.176;2023-03-14T14:52:10;6.65;;;5.53;;
16401;SDS011;8310;44.626;11.176;2023-03-14T14:54:42;5.75;;;5.03;;
16401;SDS011;8310;44.626;11.176;2023-03-14T14:57:17;5.55;;;5.03;;
16401;SDS011;8310;44.626;11.176;2023-03-14T14:59:47;5.70;;;5.15;;
16401;SDS011;8310;44.626;11.176;2023-03-14T15:02:23;9.48;;;7.22;;
16401;SDS011;8310;44.626;11.176;2023-03-14T15:04:57;7.43;;;6.80;;
16401;SDS011;8310;44.626;11.176;2023-03-14T15:07:25;7.00;;;6.40;;
16401;SDS011;8310;44.626;11.176;2023-03-14T15:09:53;7.70;;;6.40;;
16401;SDS011;8310;44.626;11.176;2023-03-14T15:12:21;7.47;;;6.15;;
16401;SDS011;8310;44.626;11.176;2023-03-14T15:14:51;6.97;;;6.32;;